• Join FlightAware (Why Join?)
  • Login
  • US Flag 
12:32AM EDT


 

Airport Tracker/Info


-or-


 

Live Flight TrackerFlight Track Log ✈ SWA1096 ✈ 24-Apr-2013 ✈ KLAS - KSLC

Flight Track Log - Related Links

Times and Time Zones

All times are in EDT time to prevent confusion due to time zone crossing. See the SWA1096 flight status page for this flight to view local times or setup timezone preferences in your user account.

Time Position Orientation Groundspeed Altitude Reporting Facility
EDT Latitude Longitude Course Direction KTS MPH feet Rate Location/Type
09:11AM 36.0750 -115.1633 272° West 158 182 3,200  Level Los Angeles Center
09:13AM 36.0772 -115.2636 272° West 242 278 6,600 2,880 Climbing Los Angeles Center
09:14AM 36.1356 -115.2947 337° Northwest 243 280 10,100 3,120 Climbing Los Angeles Center
09:15AM 36.1831 -115.2278 49° Northeast 277 319 13,100 2,700 Climbing Los Angeles Center
09:16AM 36.1975 -115.1081 81° East 355 409 15,700 2,940 Climbing Los Angeles Center
09:17AM 36.1983 -114.9756 90° East 385 443 19,100 3,300 Climbing Los Angeles Center
09:18AM 36.1989 -114.8336 90° East 409 471 22,300 2,880 Climbing Los Angeles Center
09:19AM 36.2683 -114.7183 53° Northeast 440 506 25,000 2,580 Climbing Los Angeles Center
09:20AM 36.3628 -114.6261 38° Northeast 436 502 27,600 2,700 Climbing Los Angeles Center
09:21AM 36.4622 -114.5328 37° Northeast 446 513 30,600 2,640 Climbing Los Angeles Center
09:22AM 36.5797 -114.4256 36° Northeast 439 505 33,000 1,140 Climbing Los Angeles Center
09:23AM 36.6844 -114.3469 31° Northeast 442 509 33,000  Level Los Angeles Center
09:24AM 36.7867 -114.2678 32° Northeast 435 501 33,000  Level Los Angeles Center
09:25AM 36.8919 -114.1864 32° Northeast 443 510 33,000  Level Los Angeles Center
09:26AM 36.9967 -114.1044 32° Northeast 444 511 33,000  Level Los Angeles Center
09:27AM 37.1017 -114.0233 32° Northeast 445 512 33,000  Level Los Angeles Center
09:28AM 37.2083 -113.9389 32° Northeast 443 510 33,000  Level Salt Lake Center
09:29AM 37.3131 -113.8569 32° Northeast 442 509 33,000  Level Salt Lake Center
09:30AM 37.4178 -113.7742 32° Northeast 443 510 33,000  Level Salt Lake Center
09:31AM 37.5206 -113.6906 33° Northeast 440 506 33,000  Level Salt Lake Center
09:32AM 37.6256 -113.6081 32° Northeast 443 510 33,000  Level Salt Lake Center
09:33AM 37.7297 -113.5244 32° Northeast 443 510 33,000  Level Salt Lake Center
09:34AM 37.8344 -113.4400 32° Northeast 443 510 33,000  Level Salt Lake Center
09:35AM 37.9397 -113.3558 32° Northeast 445 512 33,000  Level Salt Lake Center
09:36AM 38.0444 -113.2719 32° Northeast 443 510 33,000  Level Salt Lake Center
09:37AM 38.1706 -113.1692 33° Northeast 447 514 33,000  Level Salt Lake Center
09:38AM 38.2753 -113.0836 33° Northeast 447 514 33,000  Level Salt Lake Center
09:39AM 38.3808 -113.0011 31° Northeast 445 512 33,000  Level Salt Lake Center
09:40AM 38.4908 -112.9417 23° Northeast 434 499 33,000  Level Salt Lake Center
09:41AM 38.6014 -112.8844 22° Northeast 431 496 33,000 -60 Level Salt Lake Center
09:42AM 38.7122 -112.8242 23° Northeast 432 497 32,900 -540 Descending Salt Lake Center
09:43AM 38.8233 -112.7658 22° Northeast 432 497 32,000 -480 Descending Salt Lake Center
09:44AM 38.9328 -112.7058 23° Northeast 429 494 32,000  Level Salt Lake Center
09:45AM 39.0442 -112.6456 23° Northeast 434 499 32,000 -300 Level Salt Lake Center
09:46AM 39.1550 -112.5858 23° Northeast 434 499 31,500 -1,800 Descending Salt Lake Center
09:47AM 39.2867 -112.5142 23° Northeast 442 509 28,400 -2,400 Descending Salt Lake Center
09:48AM 39.3986 -112.4511 24° Northeast 441 507 26,700 -1,800 Descending Salt Lake Center
09:49AM 39.5050 -112.3894 24° Northeast 425 489 24,800 -1,980 Descending Salt Lake Center
09:50AM 39.6075 -112.3303 24° Northeast 408 470 22,700 -2,100 Descending Salt Lake Center
09:51AM 39.7050 -112.2733 24° Northeast 391 450 20,600 -2,040 Descending Salt Lake Center
09:52AM 39.7989 -112.2211 23° Northeast 379 436 18,600 -1,920 Descending Salt Lake Center
09:53AM 39.8875 -112.1675 25° Northeast 357 411 16,700 -1,800 Descending Salt Lake Center
09:54AM 39.9767 -112.1158 24° Northeast 352 405 15,000 -1,440 Descending Salt Lake Center
09:55AM 40.0614 -112.0758 20° North 313 360 13,900 -1,200 Descending Salt Lake Center
09:56AM 40.1375 -112.0253 27° Northeast 300 345 12,700 -1,380 Descending Salt Lake Center
09:57AM 40.2106 -111.9808 25° Northeast 288 331 11,100 -1,140 Descending Salt Lake Center
09:58AM 40.2886 -111.9631 10° North 279 321 10,500 -540 Descending Salt Lake Center
10:00AM 40.3694 -111.9550 North 274 315 10,000 -360 Descending Salt Lake Center
10:00AM 40.3919 -111.9619 347° North 272 313 10,000 -840 Level Salt Lake Center
10:01AM 40.4439 -111.9564 North 269 310 9,200 -960 Descending Salt Lake Center
10:01AM 40.5053 -111.9686 351° North 264 304 8,600 -720 Descending Salt Lake Center
10:02AM 40.5175 -111.9653 12° North 265 305 8,500 -480 Descending Salt Lake Center
10:03AM 40.5833 -111.9731 355° North 241 277 8,000 -840 Descending Salt Lake Center
10:04AM 40.6439 -111.9794 355° North 221 254 6,900 -1,080 Descending Salt Lake Center
10:05AM 40.6989 -111.9906 351° North 151 174 5,800 -900 Descending Salt Lake Center
10:06AM 40.7353 -111.9906 360° North 140 161 5,100 -780 Descending Salt Lake Center
10:07AM 40.7744 -111.9942 356° North 140 161 4,300 -780 Descending Salt Lake Center
10:09AM 40.7833 -111.9667 North  Level FlightAware Approximate